Gaars Mill, Louisiana
Current Conditions -  °F | °C
As of 6:15 AM on Tuesday 27 Jan 2015 (Local Time) from KRSN Reporting Station
Clear Clear  
Wind Chill: 45°   Ceiling: Unl
Heat Index: 45°   Visibility: 10mi
Dew Point: 39°   Wind: 0mph
Humidity: 80%   Direction: NA
Pressure: 30.1"   Gusts: NA
Location:  32.0727°N, 92.6697°W
Report Text: KRSN 271215Z AUTO 00000KT 10SM CLR 07/04 A3010 RMK AO2 T00700038
Loading
Personal Weather Stations






























Interactive Weather Map New forecast layout! Learn more

10-Day Weather Forecast

Advertisements
Track Severe Weather on mobile